Airports Sweden Visby Airport

Visby Airport (ESSV / VBY)

Facts about Visby Airport

Name Visby Airport
City Visby
Country Sweden
ICAO code ESSV
IATA code VBY
Elevation 49.9872 meters (164 feet)

Weather

METAR

Metar data retrieved Friday, 19 July 2024 at 23:55 UTC (5 minutes ago)

ESSV 192320Z AUTO 22006KT 9999 NCD 16/13 Q1015

Live traffic

Navigraph Charts (account required)